CheckWX is a tool to help pilots better visualize weather data.  It is not intended as a substitute for an official pre-flight weather briefing.

12:04:18 UTC

EDFM METAR
Mannheim City Airport
Mannheim, Germany
Current

14 mins ago

EDFM 251150Z 27015KT CAVOK 10/M02 Q1022
Observed
Mar-25 @ 11:50 UTC
Wind
  • 270° at 15 KTS
Visibility
10,000+ meters
Flight Rules
VFR
Cloud Levels
  • Clear skies
Temperature
10°C / 50°F
Dewpoint
-2°C / 28°F
Humidity
43%
Altimeter
30.18" Hg
Pressure
1021.92 hPa
Previous

44 mins ago

EDFM 251120Z 30012KT 270V330 9999 FEW045 SCT053 11/M03 Q1021
Observed
Mar-25 @ 11:20 UTC
Wind
  • 300° at 12 KTS
Visibility
10,000+ meters
Flight Rules
VFR
Cloud Levels
  • Few at 4,500' AGL
  • Scattered at 5,300' AGL
Temperature
11°C / 52°F
Dewpoint
-3°C / 27°F
Humidity
38%
Altimeter
30.15" Hg
Pressure
1020.92 hPa
Previous

1 hour ago

EDFM 251050Z 28014KT 9999 FEW041 BKN045 10/M01 Q1022
Observed
Mar-25 @ 10:50 UTC
Wind
  • 280° at 14 KTS
Visibility
10,000+ meters
Flight Rules
VFR
Cloud Levels
  • Few at 4,100' AGL
  • Broken at 4,500' AGL
Temperature
10°C / 50°F
Dewpoint
-1°C / 30°F
Humidity
47%
Altimeter
30.18" Hg
Pressure
1021.92 hPa